Umbarger, TX (79091)

12:12 PM CDT on August 27, 2016 (GMT -0500)
SE Canyon | | Change Station

Elev 3527 ft 34.97 °N, 101.91 °W | Updated 8 minutes ago

Clear
Clear
83.1 °F
Feels Like 84 °F
N
4.7
Wind Variable Wind from West

Today
High -- | Low -- °F
--% Chance of Precip.
Yesterday
High -- | Low -- °F
Precip. -- in
Pressure 30.13 in
Visibility 10.0 miles
Clouds Clear
Heat Index 84 °F
Dew Point 61 °F
Humidity 48%
Rainfall 0.00 in
Snow Depth Not available.
7:17 AM 8:20 PM
Waning Crescent, 23% visible
METAR KHRX 271655Z AUTO 22010KT 10SM CLR 26/17 A3013 RMK AO2 T02640174
Pressure 30.13 in
Visibility 10.0 miles
Clouds Clear
Heat Index 84 °F
Dew Point 61 °F
Humidity 48%
Rainfall 0.00 in
Snow Depth Not available.
7:17 AM 8:20 PM
Waning Crescent, 23% visible
METAR KHRX 271655Z AUTO 22010KT 10SM CLR 26/17 A3013 RMK AO2 T02640174

10-Day Weather Forecast

Almanac

Astronomy

Aug. 27, 2016 Rise Set
Actual Time
Civil Twilight
Nautical Twilight
Astronomical Twilight
Moon
Length of Visible Light
Length of Day
Tomorrow will be .
, % of the Moon is Illuminated

Today's Extremes

State Highs State Lows

Community

WunderPhotos

Upload Photos

1,935,386 photos uploaded!

WunderBlog® & News

Nearby

Air Quality

  Air Quality AQ Index Pollutant
Not available.

Snow Depth

Station Depth Elevation

Earthquake Activity

City Distance Mag. Time & Date
Minimum magnitude displayed is 2.5.

Coastal Water Temperatures

Place Temperature

Stations

Nearby Weather Stations

Station Location Temp. Windchill Dew Point Humidity Wind Precip. Elev Updated Type
                   

Watches & Warnings

There are currently no watches in effect.